createdAt,value
2023-04-13T00:00:36.711Z,4.30
2023-04-13T00:03:04.423Z,4.20
2023-04-13T00:05:34.131Z,4.30
2023-04-13T00:08:03.168Z,4.20
2023-04-13T00:10:41.449Z,4.20
2023-04-13T00:13:10.309Z,4.20
2023-04-13T00:15:41.753Z,4.20
2023-04-13T00:18:08.816Z,4.20
2023-04-13T00:20:35.447Z,4.20
2023-04-13T00:23:02.494Z,4.20
2023-04-13T00:25:30.345Z,4.20
2023-04-13T00:27:57.175Z,4.20
2023-04-13T00:30:23.931Z,4.20
2023-04-13T00:32:50.580Z,4.20
2023-04-13T00:35:24.701Z,4.20
2023-04-13T00:37:52.410Z,4.30
2023-04-13T00:40:19.158Z,4.30
2023-04-13T00:42:47.193Z,4.30
2023-04-13T00:45:14.701Z,4.30
2023-04-13T00:47:43.211Z,4.30
2023-04-13T00:50:10.229Z,4.30
2023-04-13T00:52:40.185Z,4.30
2023-04-13T00:55:07.599Z,4.30
2023-04-13T00:57:35.180Z,4.30
2023-04-13T01:00:06.534Z,4.30
2023-04-13T01:02:34.151Z,4.20
2023-04-13T01:05:02.146Z,4.20
2023-04-13T01:07:44.899Z,4.20
2023-04-13T01:10:18.684Z,4.20
2023-04-13T01:12:54.397Z,4.20
2023-04-13T01:15:21.494Z,4.20
2023-04-13T01:17:57.070Z,4.20
2023-04-13T01:20:26.946Z,4.20
2023-04-13T01:22:57.113Z,4.10
2023-04-13T01:25:32.811Z,4.10
2023-04-13T01:28:03.879Z,4.10
2023-04-13T01:30:32.305Z,4.10
2023-04-13T01:33:02.044Z,4.10
2023-04-13T01:35:30.677Z,4.10
2023-04-13T01:37:57.643Z,4.10
2023-04-13T01:40:26.336Z,4.10
2023-04-13T01:42:53.143Z,4.00
2023-04-13T01:46:00.860Z,4.10
2023-04-13T01:48:51.887Z,4.10
2023-04-13T01:51:22.814Z,4.10
2023-04-13T01:54:25.621Z,4.10
2023-04-13T01:56:53.917Z,4.10
2023-04-13T01:59:22.421Z,4.10
2023-04-13T02:01:49.230Z,4.10
2023-04-13T02:04:15.998Z,4.10
2023-04-13T02:06:42.756Z,4.10
2023-04-13T02:09:09.899Z,4.10
2023-04-13T02:11:37.157Z,4.20
2023-04-13T02:14:04.742Z,4.20
2023-04-13T02:16:32.025Z,4.30
2023-04-13T02:18:58.762Z,4.30
2023-04-13T02:21:25.658Z,4.40
2023-04-13T02:23:52.546Z,4.40
2023-04-13T02:26:19.739Z,4.50
2023-04-13T02:28:46.472Z,4.60
2023-04-13T02:31:16.834Z,4.60
2023-04-13T02:33:45.081Z,4.60
2023-04-13T02:36:12.222Z,4.60
2023-04-13T02:38:38.848Z,4.60
2023-04-13T02:41:06.422Z,4.50
2023-04-13T02:43:33.264Z,4.50
2023-04-13T02:45:59.975Z,4.50
2023-04-13T02:48:26.861Z,4.50
2023-04-13T02:50:54.188Z,4.50
2023-04-13T02:53:21.897Z,4.50
2023-04-13T02:55:50.216Z,4.60
2023-04-13T02:58:17.062Z,4.60
2023-04-13T03:00:44.451Z,4.70
2023-04-13T03:03:11.272Z,4.70
2023-04-13T03:05:38.818Z,4.70
2023-04-13T03:08:05.601Z,4.80
2023-04-13T03:10:32.333Z,4.80
2023-04-13T03:12:58.995Z,4.90
2023-04-13T03:15:25.563Z,4.90
2023-04-13T03:17:52.804Z,4.90
2023-04-13T03:20:22.567Z,4.90
2023-04-13T03:22:49.165Z,4.80
2023-04-13T03:25:15.962Z,4.80
2023-04-13T03:27:42.501Z,4.80
2023-04-13T03:30:09.642Z,4.80
2023-04-13T03:32:37.130Z,4.80
2023-04-13T03:35:04.308Z,4.80
2023-04-13T03:37:32.993Z,4.70
2023-04-13T03:39:59.572Z,4.70
2023-04-13T03:42:26.395Z,4.70
2023-04-13T03:44:53.097Z,4.70
2023-04-13T03:47:19.824Z,4.70
2023-04-13T03:49:46.901Z,4.70
2023-04-13T03:52:13.453Z,4.80
2023-04-13T03:54:40.293Z,4.80
2023-04-13T03:57:07.062Z,4.80
2023-04-13T03:59:33.857Z,4.80
2023-04-13T04:02:02.780Z,4.80
2023-04-13T04:04:29.777Z,4.90
2023-04-13T04:06:57.756Z,4.90
2023-04-13T04:09:24.732Z,4.90
2023-04-13T04:11:51.430Z,4.90
2023-04-13T04:14:18.340Z,4.90
2023-04-13T04:16:45.196Z,4.90
2023-04-13T04:19:12.015Z,5.00
2023-04-13T04:21:38.609Z,5.00
2023-04-13T04:24:06.210Z,5.00
2023-04-13T04:26:32.975Z,5.00
2023-04-13T04:29:02.245Z,5.00
2023-04-13T04:31:36.164Z,5.10
2023-04-13T04:34:03.982Z,5.10
2023-04-13T04:36:30.868Z,5.10
2023-04-13T04:39:01.995Z,5.10
2023-04-13T04:41:28.845Z,5.10
2023-04-13T04:43:56.820Z,5.10
2023-04-13T04:46:27.161Z,5.20
2023-04-13T04:48:54.572Z,5.20
2023-04-13T04:51:24.756Z,5.20
2023-04-13T04:53:52.876Z,5.20
2023-04-13T04:56:21.141Z,5.20
2023-04-13T04:58:47.744Z,5.30
2023-04-13T05:01:14.427Z,5.30
2023-04-13T05:03:41.275Z,5.30
2023-04-13T05:06:08.490Z,5.30
2023-04-13T05:08:35.876Z,5.40
2023-04-13T05:11:06.007Z,5.40
2023-04-13T05:13:32.682Z,5.40
2023-04-13T05:15:59.460Z,5.40
2023-04-13T05:18:26.053Z,5.40
2023-04-13T05:20:52.617Z,5.50
2023-04-13T05:23:19.412Z,5.50
2023-04-13T05:25:46.015Z,5.50
2023-04-13T05:28:12.538Z,5.50
2023-04-13T05:30:39.083Z,5.60
2023-04-13T05:33:08.076Z,5.60
2023-04-13T05:35:34.634Z,5.60
2023-04-13T05:38:01.235Z,5.60
2023-04-13T05:40:28.948Z,5.70
2023-04-13T05:42:56.215Z,5.70
2023-04-13T05:45:22.965Z,5.70
2023-04-13T05:47:50.197Z,5.80
2023-04-13T05:50:16.930Z,5.80
2023-04-13T05:52:43.551Z,5.80
2023-04-13T05:55:10.392Z,5.80
2023-04-13T05:57:36.969Z,5.80
2023-04-13T06:00:07.824Z,5.80
2023-04-13T06:02:36.137Z,5.80
2023-04-13T06:05:05.248Z,5.90
2023-04-13T06:07:32.319Z,5.80
2023-04-13T06:10:00.694Z,5.90
2023-04-13T06:12:27.553Z,5.90
2023-04-13T06:14:54.416Z,6.00
2023-04-13T06:17:21.288Z,6.10
2023-04-13T06:19:47.996Z,6.20
2023-04-13T06:22:14.688Z,6.40
2023-04-13T06:24:41.304Z,6.40
2023-04-13T06:27:08.288Z,6.50
2023-04-13T06:29:34.933Z,6.50
2023-04-13T06:32:01.572Z,6.60
2023-04-13T06:34:28.435Z,6.70
2023-04-13T06:36:54.995Z,6.90
2023-04-13T06:39:21.590Z,7.00
2023-04-13T06:41:48.200Z,7.20
2023-04-13T06:44:15.214Z,7.30
2023-04-13T06:46:41.872Z,7.30
2023-04-13T06:49:09.127Z,7.20
2023-04-13T06:51:35.937Z,7.30
2023-04-13T06:54:02.592Z,7.40
2023-04-13T06:56:29.151Z,7.60
2023-04-13T06:59:02.305Z,8.00
2023-04-13T07:01:29.672Z,9.40
2023-04-13T07:03:56.706Z,10.30
2023-04-13T07:06:23.520Z,11.20
2023-04-13T07:08:50.168Z,11.20
2023-04-13T07:11:16.843Z,10.90
2023-04-13T07:13:43.491Z,10.20
2023-04-13T07:16:12.142Z,10.40
2023-04-13T07:18:38.920Z,10.80
2023-04-13T07:21:05.970Z,10.40
2023-04-13T07:23:33.568Z,9.90
2023-04-13T07:26:00.749Z,9.90
2023-04-13T07:28:27.744Z,9.70
2023-04-13T07:30:54.323Z,10.00
2023-04-13T07:33:21.015Z,10.00
2023-04-13T07:35:50.121Z,9.70
2023-04-13T07:38:16.793Z,9.30
2023-04-13T07:40:43.331Z,9.10
2023-04-13T07:43:09.951Z,9.20
2023-04-13T07:45:36.504Z,10.70
2023-04-13T07:48:03.214Z,11.20
2023-04-13T07:50:29.942Z,11.40
2023-04-13T07:52:56.589Z,12.10
2023-04-13T07:55:23.330Z,13.80
2023-04-13T07:57:49.942Z,15.20
2023-04-13T08:00:18.311Z,14.50
2023-04-13T08:02:45.062Z,14.00
2023-04-13T08:05:12.453Z,13.00
2023-04-13T08:07:39.144Z,11.90
2023-04-13T08:10:06.643Z,10.90
2023-04-13T08:12:33.212Z,10.30
2023-04-13T08:15:00.028Z,10.10
2023-04-13T08:17:26.821Z,10.00
2023-04-13T08:19:53.402Z,9.80
2023-04-13T08:22:20.058Z,9.80
2023-04-13T08:24:46.715Z,9.90
2023-04-13T08:27:13.368Z,10.00
2023-04-13T08:29:39.915Z,10.00
2023-04-13T08:32:06.582Z,9.90
2023-04-13T08:34:33.277Z,9.90
2023-04-13T08:37:00.098Z,9.80
2023-04-13T08:39:27.253Z,9.80
2023-04-13T08:41:53.913Z,9.70
2023-04-13T08:44:20.567Z,9.80
2023-04-13T08:46:50.220Z,9.80
2023-04-13T08:49:18.642Z,9.90
2023-04-13T08:51:47.214Z,10.70
2023-04-13T08:54:16.400Z,11.10
2023-04-13T08:56:47.148Z,11.10
2023-04-13T08:59:15.890Z,10.70
2023-04-13T09:01:46.165Z,10.20
2023-04-13T09:04:17.788Z,10.20
2023-04-13T09:06:47.749Z,10.30
2023-04-13T09:09:14.880Z,12.50
2023-04-13T09:11:42.886Z,15.70
2023-04-13T09:14:10.032Z,16.60
2023-04-13T09:16:43.634Z,16.90
2023-04-13T09:19:11.363Z,18.30
2023-04-13T09:21:45.225Z,18.40
2023-04-13T09:24:13.009Z,17.30
2023-04-13T09:26:49.722Z,15.30
2023-04-13T09:29:18.500Z,12.80
2023-04-13T09:31:46.845Z,12.10
2023-04-13T09:34:14.434Z,12.30
2023-04-13T09:36:53.522Z,12.40
2023-04-13T09:39:26.039Z,11.90
2023-04-13T09:41:53.490Z,11.30
2023-04-13T09:44:24.105Z,11.00
2023-04-13T09:46:58.897Z,10.90
2023-04-13T09:49:26.127Z,10.70
2023-04-13T09:51:54.253Z,10.40
2023-04-13T09:54:22.067Z,10.10
2023-04-13T09:56:54.502Z,9.80
2023-04-13T09:59:25.964Z,9.50
2023-04-13T10:01:54.556Z,9.20
2023-04-13T10:04:21.435Z,9.10
2023-04-13T10:06:48.162Z,9.10
2023-04-13T10:09:15.301Z,9.40
2023-04-13T10:11:46.729Z,9.60
2023-04-13T10:14:32.490Z,9.50
2023-04-13T10:17:11.086Z,9.50
2023-04-13T10:19:43.023Z,9.50
2023-04-13T10:22:11.340Z,10.40
2023-04-13T10:24:39.928Z,12.90
2023-04-13T10:27:21.448Z,15.60
2023-04-13T10:29:49.937Z,17.30
2023-04-13T10:32:27.519Z,18.60
2023-04-13T10:34:55.096Z,20.00
2023-04-13T10:37:23.990Z,20.20
2023-04-13T10:40:10.004Z,19.00
2023-04-13T10:45:20.243Z,14.80
2023-04-13T10:47:47.538Z,13.60
2023-04-13T10:50:22.488Z,13.10
2023-04-13T10:52:54.956Z,14.00
2023-04-13T10:55:23.679Z,14.30
2023-04-13T10:57:50.464Z,14.30
2023-04-13T11:00:27.330Z,14.00
2023-04-13T11:03:00.102Z,13.90
2023-04-13T11:05:27.235Z,13.20
2023-04-13T11:07:55.752Z,13.00
2023-04-13T11:10:26.251Z,13.60
2023-04-13T11:12:54.358Z,13.20
2023-04-13T11:15:23.044Z,12.40
2023-04-13T11:17:55.498Z,11.60
2023-04-13T11:20:38.044Z,11.10
2023-04-13T11:23:06.683Z,10.50
2023-04-13T11:25:34.583Z,10.20
2023-04-13T11:28:03.687Z,9.90
2023-04-13T11:30:32.737Z,9.70
2023-04-13T11:33:00.988Z,9.70
2023-04-13T11:35:27.741Z,9.70
2023-04-13T11:37:55.885Z,9.70
2023-04-13T11:40:27.185Z,9.50
2023-04-13T11:42:55.805Z,9.30
2023-04-13T11:45:28.640Z,9.10
2023-04-13T11:47:56.742Z,9.00
2023-04-13T11:50:24.098Z,9.00
2023-04-13T11:52:56.357Z,8.90
2023-04-13T11:55:24.249Z,8.80
2023-04-13T11:57:54.649Z,9.00
2023-04-13T12:00:26.209Z,10.50
2023-04-13T12:05:27.806Z,13.90
2023-04-13T12:07:56.390Z,15.50
2023-04-13T12:10:38.458Z,16.40
2023-04-13T12:16:05.278Z,17.80
2023-04-13T12:18:46.329Z,16.80
2023-04-13T12:21:16.677Z,17.60
2023-04-13T12:23:58.830Z,17.40
2023-04-13T12:29:08.670Z,16.50
2023-04-13T12:31:37.140Z,15.50
2023-04-13T12:34:07.926Z,15.10
2023-04-13T12:36:36.289Z,14.70
2023-04-13T12:39:04.361Z,14.30
2023-04-13T12:41:31.821Z,13.90
2023-04-13T12:43:58.598Z,13.90
2023-04-13T12:46:26.337Z,14.30
2023-04-13T12:48:53.079Z,15.20
2023-04-13T12:51:19.800Z,15.30
2023-04-13T12:53:46.467Z,15.70
2023-04-13T12:56:13.013Z,16.10
2023-04-13T12:58:39.610Z,16.10
2023-04-13T13:01:07.189Z,15.60
2023-04-13T13:03:34.070Z,14.50
2023-04-13T13:06:00.755Z,13.70
2023-04-13T13:08:27.397Z,12.90
2023-04-13T13:10:54.030Z,12.10
2023-04-13T13:13:20.858Z,11.90
2023-04-13T13:15:47.564Z,12.90
2023-04-13T13:18:14.294Z,14.60
2023-04-13T13:20:44.265Z,15.80
2023-04-13T13:23:12.348Z,16.70
2023-04-13T13:25:46.263Z,17.30
2023-04-13T13:28:23.921Z,16.60
2023-04-13T13:30:50.729Z,17.10
2023-04-13T13:33:17.319Z,18.60
2023-04-13T13:35:43.952Z,19.90
2023-04-13T13:38:10.658Z,19.30
2023-04-13T13:40:37.302Z,18.70
2023-04-13T13:43:04.444Z,17.80
2023-04-13T13:45:31.221Z,17.00
2023-04-13T13:47:58.501Z,15.90
2023-04-13T13:50:25.526Z,14.90
2023-04-13T13:53:03.204Z,13.60
2023-04-13T13:55:31.157Z,12.50
2023-04-13T13:57:57.888Z,12.40
2023-04-13T14:00:25.654Z,13.10
2023-04-13T14:02:52.498Z,13.60
2023-04-13T14:05:19.136Z,14.30
2023-04-13T14:07:46.106Z,14.60
2023-04-13T14:10:13.367Z,14.90
2023-04-13T14:12:41.632Z,15.20
2023-04-13T14:15:09.295Z,15.00
2023-04-13T14:17:36.974Z,14.90
2023-04-13T14:20:11.723Z,14.90
2023-04-13T14:22:39.863Z,15.10
2023-04-13T14:25:08.866Z,15.40
2023-04-13T14:27:36.636Z,15.50
2023-04-13T14:30:04.345Z,15.30
2023-04-13T14:32:31.856Z,15.30
2023-04-13T14:35:00.008Z,15.40
2023-04-13T14:37:30.215Z,15.70
2023-04-13T14:39:56.842Z,15.60
2023-04-13T14:42:24.719Z,15.30
2023-04-13T14:44:51.831Z,15.10
2023-04-13T14:47:19.064Z,15.10
2023-04-13T14:49:47.155Z,14.90
2023-04-13T14:52:14.652Z,14.50
2023-04-13T14:54:41.807Z,14.30
2023-04-13T14:57:09.639Z,14.40
2023-04-13T14:59:36.279Z,14.60
2023-04-13T15:02:03.023Z,14.50
2023-04-13T15:04:29.985Z,14.40
2023-04-13T15:06:56.687Z,14.30
2023-04-13T15:09:23.332Z,14.20
2023-04-13T15:11:50.467Z,14.50
2023-04-13T15:14:17.091Z,14.80
2023-04-13T15:16:43.731Z,14.90
2023-04-13T15:19:10.878Z,14.70
2023-04-13T15:21:37.429Z,14.40
2023-04-13T15:24:04.287Z,14.20
2023-04-13T15:26:31.287Z,14.00
2023-04-13T15:28:58.154Z,13.90
2023-04-13T15:31:25.089Z,13.70
2023-04-13T15:33:51.765Z,13.70
2023-04-13T15:36:18.930Z,13.70
2023-04-13T15:38:45.618Z,13.60
2023-04-13T15:41:12.263Z,13.40
2023-04-13T15:43:38.936Z,13.20
2023-04-13T15:46:05.611Z,13.10
2023-04-13T15:48:32.306Z,13.10
2023-04-13T15:51:02.209Z,13.20
2023-04-13T15:53:28.799Z,13.30
2023-04-13T15:55:55.943Z,13.30
2023-04-13T15:58:22.568Z,13.30
2023-04-13T16:01:06.756Z,13.30
2023-04-13T16:03:35.032Z,13.30
2023-04-13T16:06:02.842Z,13.30
2023-04-13T16:08:29.427Z,13.20
2023-04-13T16:10:56.260Z,13.30
2023-04-13T16:13:23.141Z,13.40
2023-04-13T16:15:55.489Z,13.40
2023-04-13T16:18:25.328Z,13.50
2023-04-13T16:20:58.887Z,13.50
2023-04-13T16:23:25.930Z,13.50
2023-04-13T16:25:52.701Z,13.50
2023-04-13T16:28:20.211Z,13.50
2023-04-13T16:30:47.795Z,13.40
2023-04-13T16:33:14.592Z,13.30
2023-04-13T16:35:41.255Z,13.20
2023-04-13T16:38:07.822Z,13.30
2023-04-13T16:40:34.474Z,13.30
2023-04-13T16:43:03.952Z,13.40
2023-04-13T16:45:30.849Z,13.30
2023-04-13T16:47:57.426Z,13.30
2023-04-13T16:50:29.683Z,13.20
2023-04-13T16:52:58.059Z,13.10
2023-04-13T16:55:26.670Z,13.00
2023-04-13T16:57:53.337Z,12.90
2023-04-13T17:00:20.413Z,12.80
2023-04-13T17:02:47.918Z,12.70
2023-04-13T17:05:14.620Z,12.50
2023-04-13T17:07:43.423Z,12.50
2023-04-13T17:10:12.708Z,12.30
2023-04-13T17:12:39.614Z,12.20
2023-04-13T17:15:06.860Z,12.10
2023-04-13T17:17:34.923Z,11.90
2023-04-13T17:20:02.015Z,11.80
2023-04-13T17:22:28.659Z,11.60
2023-04-13T17:24:55.658Z,11.40
2023-04-13T17:27:22.501Z,11.30
2023-04-13T17:29:49.738Z,11.10
2023-04-13T17:32:16.819Z,11.00
2023-04-13T17:34:44.623Z,10.80
2023-04-13T17:37:11.674Z,10.70
2023-04-13T17:39:42.046Z,10.60
2023-04-13T17:42:09.302Z,10.50
2023-04-13T17:44:37.740Z,10.40
2023-04-13T17:47:04.431Z,10.30
2023-04-13T17:49:31.016Z,10.20
2023-04-13T17:52:00.079Z,10.10
2023-04-13T17:54:27.552Z,10.00
2023-04-13T17:56:54.652Z,9.90
2023-04-13T17:59:21.617Z,9.80
2023-04-13T18:01:51.514Z,9.70
2023-04-13T18:04:18.658Z,9.60
2023-04-13T18:06:45.449Z,9.50
2023-04-13T18:09:14.896Z,9.50
2023-04-13T18:11:41.513Z,9.40
2023-04-13T18:14:08.981Z,9.30
2023-04-13T18:16:35.897Z,9.20
2023-04-13T18:19:02.856Z,9.10
2023-04-13T18:21:30.425Z,9.00
2023-04-13T18:23:59.306Z,8.90
2023-04-13T18:26:26.343Z,8.70
2023-04-13T18:28:53.208Z,8.60
2023-04-13T18:31:19.873Z,8.50
2023-04-13T18:33:46.718Z,8.40
2023-04-13T18:36:17.148Z,8.30
2023-04-13T18:38:44.795Z,8.20
2023-04-13T18:41:12.104Z,8.10
2023-04-13T18:43:39.344Z,8.10
2023-04-13T18:46:06.336Z,8.00
2023-04-13T18:48:33.004Z,8.00
2023-04-13T18:51:00.357Z,7.90
2023-04-13T18:53:26.964Z,7.80
2023-04-13T18:55:53.882Z,7.70
2023-04-13T18:58:20.945Z,7.50
2023-04-13T19:00:48.132Z,7.40
2023-04-13T19:03:14.846Z,7.30
2023-04-13T19:05:41.680Z,7.20
2023-04-13T19:08:09.987Z,7.10
2023-04-13T19:10:36.648Z,7.00
2023-04-13T19:13:03.324Z,6.90
2023-04-13T19:15:30.694Z,6.80
2023-04-13T19:17:57.373Z,6.70
2023-04-13T19:20:24.850Z,6.60
2023-04-13T19:22:51.605Z,6.60
2023-04-13T19:25:18.275Z,6.50
2023-04-13T19:27:45.622Z,6.50
2023-04-13T19:30:13.728Z,6.40
2023-04-13T19:32:42.504Z,6.30
2023-04-13T19:35:10.527Z,6.30
2023-04-13T19:37:37.913Z,6.20
2023-04-13T19:40:26.065Z,6.20
2023-04-13T19:42:52.869Z,6.10
2023-04-13T19:45:19.556Z,6.00
2023-04-13T19:47:46.491Z,6.00
2023-04-13T19:50:14.814Z,5.90
2023-04-13T19:52:42.399Z,5.90
2023-04-13T19:55:10.387Z,5.80
2023-04-13T19:57:40.312Z,5.80
2023-04-13T20:00:16.809Z,5.70
2023-04-13T20:02:49.528Z,5.60
2023-04-13T20:05:17.791Z,5.60
2023-04-13T20:07:44.448Z,5.50
2023-04-13T20:10:12.370Z,5.50
2023-04-13T20:12:39.357Z,5.50
2023-04-13T20:15:06.705Z,5.50
2023-04-13T20:17:33.373Z,5.50
2023-04-13T20:20:00.118Z,5.40
2023-04-13T20:22:26.748Z,5.40
2023-04-13T20:24:53.362Z,5.30
2023-04-13T20:27:23.509Z,5.30
2023-04-13T20:29:51.527Z,5.30
2023-04-13T20:32:18.303Z,5.30
2023-04-13T20:34:45.072Z,5.20
2023-04-13T20:37:13.959Z,5.20
2023-04-13T20:39:49.837Z,5.20
2023-04-13T20:42:18.141Z,5.10
2023-04-13T20:44:49.088Z,5.10
2023-04-13T20:47:16.483Z,5.10
2023-04-13T20:49:47.709Z,5.10
2023-04-13T20:52:14.411Z,5.00
2023-04-13T20:54:42.262Z,4.90
2023-04-13T20:57:09.289Z,4.90
2023-04-13T20:59:39.947Z,4.80
2023-04-13T21:02:06.741Z,4.80
2023-04-13T21:04:33.379Z,4.70
2023-04-13T21:07:02.246Z,4.70
2023-04-13T21:09:30.190Z,4.60
2023-04-13T21:11:57.427Z,4.60
2023-04-13T21:14:25.399Z,4.60
2023-04-13T21:16:52.709Z,4.60
2023-04-13T21:19:19.773Z,4.50
2023-04-13T21:21:46.604Z,4.50
2023-04-13T21:24:13.432Z,4.50
2023-04-13T21:26:40.181Z,4.50
2023-04-13T21:29:07.520Z,4.40
2023-04-13T21:31:34.152Z,4.40
2023-04-13T21:34:01.096Z,4.30
2023-04-13T21:38:57.486Z,4.30
2023-04-13T21:41:24.218Z,4.30
2023-04-13T21:43:50.848Z,4.30
2023-04-13T21:46:18.678Z,4.20
2023-04-13T21:48:45.403Z,4.20
2023-04-13T21:51:12.053Z,4.20
2023-04-13T21:53:38.832Z,4.20
2023-04-13T21:56:05.946Z,4.20
2023-04-13T21:58:41.074Z,4.20
2023-04-13T22:01:08.524Z,4.10
2023-04-13T22:03:43.104Z,4.00
2023-04-13T22:06:11.016Z,4.00
2023-04-13T22:08:38.308Z,4.00
2023-04-13T22:11:05.445Z,3.90
2023-04-13T22:13:32.435Z,3.90
2023-04-13T22:15:59.195Z,3.80
2023-04-13T22:18:26.741Z,3.80
2023-04-13T22:20:53.345Z,3.70
2023-04-13T22:23:20.209Z,3.70
2023-04-13T22:25:58.906Z,3.70
2023-04-13T22:28:28.409Z,3.70
2023-04-13T22:30:55.073Z,3.70
2023-04-13T22:33:21.770Z,3.70
2023-04-13T22:35:51.595Z,3.70
2023-04-13T22:38:18.902Z,3.70
2023-04-13T22:40:45.768Z,3.60
2023-04-13T22:43:13.165Z,3.60
2023-04-13T22:45:39.802Z,3.60
2023-04-13T22:48:06.756Z,3.60
2023-04-13T22:50:33.465Z,3.50
2023-04-13T22:53:00.026Z,3.50
2023-04-13T22:55:26.624Z,3.40
2023-04-13T22:57:53.205Z,3.40
2023-04-13T23:00:20.895Z,3.40
2023-04-13T23:02:52.660Z,3.40
2023-04-13T23:05:19.548Z,3.30
2023-04-13T23:07:46.132Z,3.30
2023-04-13T23:10:13.259Z,3.30
2023-04-13T23:12:41.376Z,3.30
2023-04-13T23:15:08.301Z,3.30
2023-04-13T23:17:35.378Z,3.30
2023-04-13T23:20:06.871Z,3.30
2023-04-13T23:22:33.803Z,3.30
2023-04-13T23:25:00.671Z,3.30
2023-04-13T23:27:27.251Z,3.30
2023-04-13T23:29:53.972Z,3.20
2023-04-13T23:32:21.184Z,3.20
2023-04-13T23:34:47.805Z,3.20
2023-04-13T23:37:14.390Z,3.10
2023-04-13T23:39:40.934Z,3.20
2023-04-13T23:42:08.395Z,3.20
2023-04-13T23:44:34.971Z,3.10
2023-04-13T23:47:01.540Z,3.10
2023-04-13T23:49:28.360Z,3.10
2023-04-13T23:51:54.941Z,3.00
2023-04-13T23:54:21.594Z,3.00
2023-04-13T23:56:48.389Z,3.00
2023-04-13T23:59:15.404Z,3.00
